Time;durP1;ratioP1;P1;durP2;ratioP2;P2;SDS_P1;SDS_P2;PMS_P1;PMS_P2;Temp;Humidity;BMP_temperature;BMP_pressure;BME280_temperature;BME280_humidity;BME280_pressure;Samples;Min_cycle;Max_cycle;Signal;HPM_P1;HPM_P2
2022/09/05 00:00:45;;;;;;;9.55;5.65;;;;;15.30;96886.00;;;;8328133;28;20218;-72
2022/09/05 00:04:58;;;;;;;7.68;5.57;;;;;15.30;96888.00;;;;8327983;28;20248;-72
2022/09/05 00:09:30;;;;;;;9.40;6.22;;;;;15.20;96884.00;;;;8327958;28;20235;-71
2022/09/05 00:13:39;;;;;;;9.00;5.55;;;;;15.20;96884.00;;;;8328263;28;20618;-71
2022/09/05 00:17:53;;;;;;;8.68;6.82;;;;;15.20;96882.00;;;;8327902;28;20243;-71
2022/09/05 00:22:35;;;;;;;6.38;5.53;;;;;15.20;96875.00;;;;8326561;28;20251;-71
2022/09/05 00:27:39;;;;;;;9.60;6.10;;;;;15.10;96880.00;;;;8326906;28;20229;-71
2022/09/05 00:36:58;;;;;;;6.80;6.07;;;;;15.20;96872.00;;;;8327129;28;20323;-72
2022/09/05 00:41:07;;;;;;;8.63;6.53;;;;;15.20;96874.00;;;;8322391;28;20312;-71
2022/09/05 00:45:16;;;;;;;10.90;7.32;;;;;15.00;96869.00;;;;8327464;28;20314;-70
2022/09/05 00:49:27;;;;;;;9.30;6.93;;;;;15.00;96865.00;;;;8327933;28;20226;-69
2022/09/05 00:54:19;;;;;;;9.52;6.55;;;;;15.00;96868.00;;;;8327644;28;20219;-71
2022/09/05 00:59:15;;;;;;;9.98;6.97;;;;;15.10;96870.00;;;;8280564;28;20274;-71
2022/09/05 01:03:36;;;;;;;10.90;7.82;;;;;15.20;96873.00;;;;8326041;28;20219;-71
2022/09/05 01:07:48;;;;;;;15.65;8.02;;;;;15.20;96871.00;;;;8327335;28;20229;-71
2022/09/05 01:12:27;;;;;;;9.40;6.28;;;;;15.20;96875.00;;;;8327459;28;20519;-71
2022/09/05 01:16:42;;;;;;;11.02;5.97;;;;;15.10;96868.00;;;;8327425;28;20221;-71
2022/09/05 01:21:26;;;;;;;10.70;6.68;;;;;15.10;96866.00;;;;8325870;28;20257;-72
2022/09/05 01:25:40;;;;;;;8.80;5.10;;;;;15.10;96869.00;;;;8322386;28;20239;-71
2022/09/05 01:30:09;;;;;;;9.98;6.07;;;;;15.00;96877.00;;;;8326149;28;20229;-71
2022/09/05 01:34:19;;;;;;;13.95;6.90;;;;;14.90;96887.00;;;;8326894;28;20229;-71
2022/09/05 01:38:42;;;;;;;10.30;6.05;;;;;14.80;96885.00;;;;8320415;28;20555;-71
2022/09/05 01:43:17;;;;;;;9.63;5.40;;;;;14.80;96896.00;;;;8338854;28;20659;-71
2022/09/05 01:47:38;;;;;;;10.02;5.78;;;;;14.70;96890.00;;;;8332245;28;20221;-71
2022/09/05 01:52:17;;;;;;;13.48;5.80;;;;;14.70;96892.00;;;;8331802;28;20279;-70
2022/09/05 01:56:33;;;;;;;6.63;5.22;;;;;14.60;96890.00;;;;8331219;28;20586;-70
2022/09/05 02:01:00;;;;;;;12.27;5.45;;;;;14.60;96887.00;;;;8332812;28;20315;-71
2022/09/05 02:05:50;;;;;;;7.85;5.80;;;;;14.50;96888.00;;;;8331425;28;20636;-70
2022/09/05 02:10:33;;;;;;;12.57;6.80;;;;;14.30;96881.00;;;;8331686;28;20662;-70
2022/09/05 02:14:40;;;;;;;8.00;5.90;;;;;14.20;96879.00;;;;8331762;28;20227;-70
2022/09/05 02:19:15;;;;;;;7.75;5.70;;;;;14.20;96880.00;;;;8331679;28;20240;-71
2022/09/05 02:23:33;;;;;;;7.75;5.80;;;;;14.20;96879.00;;;;8331645;28;20241;-70
2022/09/05 02:28:04;;;;;;;10.52;6.03;;;;;14.30;96883.00;;;;8331143;28;20236;-70
2022/09/05 02:32:14;;;;;;;8.40;6.13;;;;;14.30;96883.00;;;;8331255;28;20228;-71
2022/09/05 02:36:44;;;;;;;6.70;5.50;;;;;14.20;96886.00;;;;8330844;28;20457;-70
2022/09/05 02:40:57;;;;;;;6.93;5.43;;;;;14.30;96890.00;;;;8331270;28;20305;-70
2022/09/05 02:45:33;;;;;;;8.10;5.18;;;;;14.30;96897.00;;;;8330065;28;20259;-70
2022/09/05 02:50:03;;;;;;;7.45;4.60;;;;;14.20;96887.00;;;;8329697;28;20237;-71
2022/09/05 02:54:30;;;;;;;10.98;5.68;;;;;14.20;96878.00;;;;8328900;28;20220;-70
2022/09/05 02:59:04;;;;;;;12.10;6.85;;;;;14.20;96891.00;;;;8334403;28;20237;-71
2022/09/05 03:03:34;;;;;;;10.25;6.32;;;;;14.20;96882.00;;;;8329900;28;20229;-70
2022/09/05 03:08:12;;;;;;;8.50;5.28;;;;;14.20;96889.00;;;;8330545;28;20567;-70
2022/09/05 03:12:52;;;;;;;8.07;5.63;;;;;14.20;96887.00;;;;8329653;28;20547;-70
2022/09/05 03:17:45;;;;;;;10.57;5.88;;;;;14.10;96886.00;;;;8329716;28;20221;-70
2022/09/05 03:22:34;;;;;;;10.13;6.40;;;;;14.00;96883.00;;;;8329700;28;20665;-71
2022/09/05 03:27:27;;;;;;;9.98;4.95;;;;;14.00;96883.00;;;;8329553;28;20296;-70
2022/09/05 03:31:50;;;;;;;6.72;4.90;;;;;14.00;96888.00;;;;8276379;28;20543;-70
2022/09/05 03:36:39;;;;;;;6.45;4.30;;;;;14.10;96893.00;;;;8328989;28;20235;-69
2022/09/05 03:41:05;;;;;;;7.57;4.95;;;;;14.10;96884.00;;;;8329351;28;20241;-70
2022/09/05 03:45:43;;;;;;;8.88;4.90;;;;;14.00;96893.00;;;;8327720;28;20220;-69
2022/09/05 03:55:26;;;;;;;8.32;4.93;;;;;13.80;96887.00;;;;8325674;28;20242;-70
2022/09/05 04:00:08;;;;;;;6.82;5.18;;;;;13.80;96889.00;;;;8325542;28;20228;-69
2022/09/05 04:04:42;;;;;;;6.78;5.45;;;;;13.80;96894.00;;;;8326307;28;20304;-69
2022/09/05 04:09:19;;;;;;;6.32;5.40;;;;;13.70;96891.00;;;;8327427;28;20281;-69
2022/09/05 04:13:50;;;;;;;6.93;5.32;;;;;13.70;96892.00;;;;8328556;28;20240;-70
2022/09/05 04:18:28;;;;;;;6.93;4.88;;;;;13.70;96893.00;;;;8315752;28;20220;-70
2022/09/05 04:23:13;;;;;;;7.93;4.93;;;;;13.70;96886.00;;;;8327866;28;20254;-71
2022/09/05 04:27:46;;;;;;;6.90;5.28;;;;;13.60;96889.00;;;;8327464;28;20300;-70
2022/09/05 04:32:24;;;;;;;7.97;5.45;;;;;13.50;96884.00;;;;8326552;28;20215;-70
2022/09/05 04:37:00;;;;;;;7.63;5.80;;;;;13.50;96890.00;;;;8327708;28;20636;-70
2022/09/05 04:41:28;;;;;;;7.65;5.65;;;;;13.50;96888.00;;;;8327233;28;20217;-71
2022/09/05 04:46:13;;;;;;;5.88;5.03;;;;;13.60;96890.00;;;;8327272;28;20229;-71
2022/09/05 04:51:06;;;;;;;6.13;4.95;;;;;13.70;96891.00;;;;8327366;28;20233;-69
2022/09/05 04:55:17;;;;;;;9.07;5.32;;;;;13.70;96892.00;;;;8292581;28;20219;-69
2022/09/05 04:59:58;;;;;;;6.03;5.20;;;;;13.70;96892.00;;;;8327299;28;20627;-71
2022/09/05 05:04:28;;;;;;;7.57;5.55;;;;;13.80;96896.00;;;;8327356;28;20221;-71
2022/09/05 05:09:16;;;;;;;7.45;5.57;;;;;13.80;96902.00;;;;8327286;28;20231;-71
2022/09/05 05:13:42;;;;;;;8.73;5.57;;;;;14.00;96899.00;;;;8328098;28;20216;-70
2022/09/05 05:18:22;;;;;;;5.50;4.78;;;;;14.00;96894.00;;;;8333024;28;20266;-71
2022/09/05 05:22:57;;;;;;;5.57;4.72;;;;;14.10;96894.00;;;;8332666;28;20231;-71
2022/09/05 05:27:28;;;;;;;7.32;5.25;;;;;14.20;96899.00;;;;8333095;28;20220;-71
2022/09/05 05:32:07;;;;;;;7.07;5.55;;;;;14.20;96908.00;;;;8323257;28;20224;-70
2022/09/05 05:36:47;;;;;;;7.43;5.15;;;;;14.30;96926.00;;;;8344444;28;20302;-69
2022/09/05 05:41:18;;;;;;;7.40;4.68;;;;;14.40;96934.00;;;;8364368;28;20239;-71
2022/09/05 05:45:57;;;;;;;5.55;4.70;;;;;14.50;96926.00;;;;8364520;28;20669;-70
2022/09/05 05:50:38;;;;;;;5.55;4.22;;;;;14.60;96925.00;;;;8365157;28;20229;-70
2022/09/05 05:55:14;;;;;;;5.15;4.43;;;;;14.70;96925.00;;;;8363999;28;20244;-69
2022/09/05 05:59:57;;;;;;;12.23;5.28;;;;;14.90;96922.00;;;;8364891;28;20212;-69
2022/09/05 06:04:38;;;;;;;6.60;5.57;;;;;15.10;96927.00;;;;8364802;28;20220;-69
2022/09/05 06:14:58;;;;;;;5.57;5.03;;;;;15.60;96925.00;;;;8364102;28;20636;-70
2022/09/05 06:19:52;;;;;;;6.75;5.45;;;;;15.90;96931.00;;;;8364546;28;20698;-71
2022/09/05 06:24:52;;;;;;;6.65;4.97;;;;;16.20;96949.00;;;;8363248;28;20662;-71
2022/09/05 06:29:24;;;;;;;7.80;5.30;;;;;16.50;96941.00;;;;8363332;28;20282;-71
2022/09/05 06:34:08;;;;;;;6.50;5.40;;;;;16.80;96949.00;;;;8362750;28;20223;-72
2022/09/05 06:39:08;;;;;;;8.40;5.93;;;;;17.10;96945.00;;;;8363222;28;20546;-69
2022/09/05 06:43:59;;;;;;;8.95;6.60;;;;;17.30;96952.00;;;;8363865;28;20686;-70
2022/09/05 06:48:26;;;;;;;11.18;7.63;;;;;17.70;96953.00;;;;8363016;28;20638;-70
2022/09/05 06:53:26;;;;;;;12.82;8.32;;;;;18.00;96958.00;;;;8362305;28;20673;-71
2022/09/05 06:58:21;;;;;;;9.00;7.55;;;;;18.30;96968.00;;;;8362892;28;20315;-72
2022/09/05 07:02:41;;;;;;;13.32;9.38;;;;;18.60;96963.00;;;;8361990;28;20216;-70
2022/09/05 07:07:21;;;;;;;11.25;7.50;;;;;18.90;96965.00;;;;8362118;28;20217;-66
2022/09/05 07:11:57;;;;;;;10.65;8.40;;;;;19.20;96961.00;;;;8361879;28;20220;-66
2022/09/05 07:16:45;;;;;;;14.35;9.95;;;;;19.50;96973.00;;;;8361087;28;20291;-68
2022/09/05 07:25:50;;;;;;;10.35;8.55;;;;;20.30;96973.00;;;;8361702;28;20239;-68
2022/09/05 07:30:24;;;;;;;12.02;8.32;;;;;20.60;96974.00;;;;8361287;28;20221;-69
2022/09/05 07:35:01;;;;;;;11.68;8.00;;;;;21.10;96977.00;;;;8361378;28;20391;-69
2022/09/05 07:39:37;;;;;;;10.25;7.88;;;;;21.60;96980.00;;;;8359930;28;20232;-68
2022/09/05 07:44:11;;;;;;;11.15;7.15;;;;;22.20;96978.00;;;;8361111;28;20220;-68
2022/09/05 07:48:23;;;;;;;7.68;6.40;;;;;22.80;96988.00;;;;8361164;28;20270;-68
2022/09/05 07:52:55;;;;;;;8.48;6.30;;;;;23.20;96992.00;;;;8360433;28;20216;-68
2022/09/05 07:57:33;;;;;;;7.10;6.28;;;;;23.80;96981.00;;;;8361218;28;20216;-68
2022/09/05 08:02:10;;;;;;;7.10;5.28;;;;;24.30;96983.00;;;;8360588;28;20228;-68
2022/09/05 08:06:43;;;;;;;6.43;5.35;;;;;24.80;96991.00;;;;8361146;28;20255;-68
2022/09/05 08:11:26;;;;;;;7.10;5.75;;;;;25.60;96990.00;;;;8360045;28;20266;-68
2022/09/05 08:15:58;;;;;;;7.65;5.03;;;;;26.10;96992.00;;;;8350030;28;20224;-68
2022/09/05 08:20:41;;;;;;;4.72;4.32;;;;;26.60;96991.00;;;;8360108;28;20295;-66
2022/09/05 08:25:17;;;;;;;4.70;4.30;;;;;26.90;96990.00;;;;8360578;28;20276;-68
2022/09/05 08:29:52;;;;;;;4.15;3.75;;;;;27.40;96990.00;;;;8359720;28;20307;-68
2022/09/05 08:34:18;;;;;;;5.97;4.07;;;;;27.60;96987.00;;;;8359902;28;20608;-68
2022/09/05 08:38:44;;;;;;;4.15;3.83;;;;;27.80;96986.00;;;;8359576;28;20662;-68
2022/09/05 08:42:52;;;;;;;4.50;3.72;;;;;27.90;96982.00;;;;8360900;28;20303;-68
2022/09/05 08:47:32;;;;;;;6.43;3.80;;;;;28.10;96985.00;;;;8359746;28;20228;-68
2022/09/05 08:52:08;;;;;;;6.85;3.47;;;;;28.50;96976.00;;;;8367443;28;20228;-68
2022/09/05 08:56:39;;;;;;;6.05;3.60;;;;;28.80;96973.00;;;;8366016;28;20311;-68
2022/09/05 09:01:14;;;;;;;8.18;3.80;;;;;29.20;96975.00;;;;8366548;28;20661;-67
2022/09/05 09:05:56;;;;;;;3.47;3.17;;;;;29.50;96971.00;;;;8356862;28;20273;-68
2022/09/05 09:10:41;;;;;;;6.00;3.90;;;;;29.40;96970.00;;;;8365339;28;20304;-68
2022/09/05 09:15:13;;;;;;;5.22;3.10;;;;;29.30;96968.00;;;;8366035;28;20611;-66
2022/09/05 09:19:49;;;;;;;4.35;3.25;;;;;29.50;96964.00;;;;8365546;28;20236;-66
2022/09/05 09:24:28;;;;;;;4.40;3.20;;;;;29.70;96965.00;;;;8364934;28;20315;-66
2022/09/05 09:29:05;;;;;;;3.60;2.90;;;;;29.70;96965.00;;;;8365210;28;20307;-66
2022/09/05 09:33:36;;;;;;;5.30;2.90;;;;;29.70;96965.00;;;;8365499;28;20304;-66
2022/09/05 09:38:05;;;;;;;2.95;2.65;;;;;30.00;96964.00;;;;8365058;28;20426;-67
2022/09/05 09:42:39;;;;;;;5.07;3.05;;;;;30.50;96954.00;;;;8364307;28;20304;-66
2022/09/05 09:47:13;;;;;;;2.90;2.60;;;;;30.90;96963.00;;;;8365040;28;20379;-66
2022/09/05 09:51:52;;;;;;;2.95;2.75;;;;;31.30;96964.00;;;;8363677;28;20227;-66
2022/09/05 09:56:41;;;;;;;3.30;2.20;;;;;31.70;96969.00;;;;8364061;28;20311;-66
2022/09/05 10:01:16;;;;;;;4.50;2.60;;;;;32.00;96965.00;;;;8363910;28;20220;-66
2022/09/05 10:05:56;;;;;;;2.10;2.00;;;;;32.20;96971.00;;;;8364571;28;20224;-67
2022/09/05 10:11:08;;;;;;;4.22;2.20;;;;;32.30;96972.00;;;;8362819;28;20546;-66
2022/09/05 10:16:22;;;;;;;1.90;1.83;;;;;32.00;96968.00;;;;8363167;28;20220;-66
2022/09/05 10:21:04;;;;;;;2.45;2.03;;;;;32.00;96958.00;;;;8363394;28;20209;-65
2022/09/05 10:25:42;;;;;;;2.25;2.10;;;;;32.30;96957.00;;;;8363974;28;20216;-65
2022/09/05 10:30:06;;;;;;;3.03;2.30;;;;;32.30;96960.00;;;;8363325;28;20312;-66
2022/09/05 10:34:45;;;;;;;2.35;2.17;;;;;32.40;96958.00;;;;8363198;28;20220;-66
2022/09/05 10:39:45;;;;;;;2.20;2.00;;;;;32.60;96950.00;;;;8361587;28;20290;-66
2022/09/05 10:44:13;;;;;;;4.65;2.53;;;;;32.60;96940.00;;;;8361352;28;20550;-66
2022/09/05 10:48:48;;;;;;;1.98;1.88;;;;;32.40;96936.00;;;;8361526;28;20235;-66
2022/09/05 10:53:33;;;;;;;2.47;2.28;;;;;32.10;96927.00;;;;8360423;28;20213;-67
2022/09/05 10:58:07;;;;;;;2.60;2.30;;;;;31.70;96928.00;;;;8361114;28;20231;-66
2022/09/05 11:02:40;;;;;;;3.33;2.10;;;;;31.30;96922.00;;;;8350827;28;20252;-67
2022/09/05 11:07:16;;;;;;;3.25;2.40;;;;;31.50;96916.00;;;;8360857;28;20220;-66
2022/09/05 11:12:02;;;;;;;2.03;1.92;;;;;31.60;96914.00;;;;8360103;28;20273;-66
2022/09/05 11:16:31;;;;;;;2.10;2.00;;;;;31.60;96907.00;;;;8358758;28;20316;-66
2022/09/05 11:21:07;;;;;;;2.50;2.35;;;;;31.90;96909.00;;;;8360138;28;20220;-66
2022/09/05 11:25:39;;;;;;;3.80;2.53;;;;;31.70;96908.00;;;;8357669;28;20228;-66
2022/09/05 11:30:17;;;;;;;2.22;2.13;;;;;31.60;96903.00;;;;8357230;28;20761;-67
2022/09/05 11:40:14;;;;;;;2.20;2.10;;;;;31.00;96897.00;;;;8391924;27;20951;-66
2022/09/05 11:45:17;;;;;;;2.58;2.38;;;;;31.00;96892.00;;;;8389233;28;20226;-66
2022/09/05 11:50:12;;;;;;;2.40;2.30;;;;;31.20;96900.00;;;;8388521;28;20224;-67
2022/09/05 11:54:57;;;;;;;2.45;2.30;;;;;31.10;96891.00;;;;8285650;28;20222;-67
2022/09/05 12:04:47;;;;;;;2.45;2.28;;;;;30.40;96889.00;;;;8359382;28;20217;-68
2022/09/05 12:09:25;;;;;;;2.22;2.13;;;;;30.10;96882.00;;;;8359742;28;20224;-67
2022/09/05 12:13:51;;;;;;;3.28;1.80;;;;;29.80;96878.00;;;;8359833;28;20300;-66
2022/09/05 12:18:26;;;;;;;1.77;1.65;;;;;29.90;96880.00;;;;8384953;28;20341;-67
2022/09/05 12:23:02;;;;;;;1.70;1.60;;;;;30.00;96878.00;;;;8358905;28;20259;-66
2022/09/05 12:27:15;;;;;;;2.25;1.90;;;;;30.00;96870.00;;;;8355263;28;20221;-66
2022/09/05 12:31:51;;;;;;;3.20;2.17;;;;;30.00;96873.00;;;;8358967;28;20278;-66
2022/09/05 12:36:34;;;;;;;2.45;1.98;;;;;29.90;96860.00;;;;8357355;28;20287;-67
2022/09/05 12:41:33;;;;;;;1.80;1.80;;;;;29.80;96863.00;;;;8358969;28;20224;-67
2022/09/05 12:46:22;;;;;;;2.17;1.60;;;;;29.90;96860.00;;;;8357688;28;20233;-66
2022/09/05 12:50:57;;;;;;;1.90;1.80;;;;;29.90;96867.00;;;;8334286;28;20224;-67
2022/09/05 12:55:26;;;;;;;3.45;2.05;;;;;30.00;96861.00;;;;8335959;28;20225;-67
2022/09/05 13:00:03;;;;;;;2.28;2.08;;;;;30.00;96868.00;;;;8331866;28;20652;-67
2022/09/05 13:04:44;;;;;;;1.95;1.85;;;;;30.00;96859.00;;;;8335319;28;20221;-67
2022/09/05 13:09:21;;;;;;;1.98;1.88;;;;;29.70;96850.00;;;;8331128;28;20296;-67
2022/09/05 13:13:54;;;;;;;3.70;1.90;;;;;29.60;96845.00;;;;8335983;28;20267;-67
2022/09/05 13:19:06;;;;;;;1.60;1.48;;;;;29.80;96841.00;;;;8363888;28;20274;-67
2022/09/05 13:23:36;;;;;;;1.80;1.70;;;;;29.90;96846.00;;;;8363714;28;20220;-67
2022/09/05 13:27:45;;;;;;;2.28;2.10;;;;;30.00;96839.00;;;;8363876;28;20308;-67
2022/09/05 13:32:17;;;;;;;1.80;1.60;;;;;30.00;96833.00;;;;8364163;28;20220;-67
2022/09/05 13:37:17;;;;;;;1.80;1.70;;;;;30.10;96836.00;;;;8360541;28;20236;-68
2022/09/05 13:41:58;;;;;;;4.00;1.80;;;;;30.50;96826.00;;;;8349508;28;20227;-67
2022/09/05 13:46:34;;;;;;;2.83;1.55;;;;;30.80;96832.00;;;;8360532;28;20687;-66
2022/09/05 13:51:05;;;;;;;1.88;1.77;;;;;31.50;96818.00;;;;8363237;28;20220;-67
2022/09/05 13:55:44;;;;;;;2.97;2.03;;;;;32.10;96812.00;;;;8362068;28;20238;-67
2022/09/05 14:00:28;;;;;;;1.75;1.65;;;;;32.60;96806.00;;;;8362051;28;20224;-67
2022/09/05 14:05:12;;;;;;;2.78;1.77;;;;;33.00;96802.00;;;;8361937;28;20654;-67
2022/09/05 14:09:45;;;;;;;1.80;1.70;;;;;33.20;96801.00;;;;8362678;28;20681;-68
2022/09/05 14:14:13;;;;;;;1.65;1.50;;;;;33.40;96798.00;;;;8361913;28;20220;-68
2022/09/05 14:23:07;;;;;;;1.65;1.55;;;;;33.50;96784.00;;;;8361620;28;20320;-67
2022/09/05 14:27:43;;;;;;;2.92;1.77;;;;;33.60;96787.00;;;;8361507;28;20221;-67
2022/09/05 14:32:40;;;;;;;2.28;1.90;;;;;33.70;96788.00;;;;8362061;28;20712;-67
2022/09/05 14:37:19;;;;;;;2.70;1.67;;;;;33.80;96774.00;;;;8356171;28;20266;-67
2022/09/05 14:42:20;;;;;;;2.08;1.60;;;;;33.70;96772.00;;;;8359394;28;20220;-67
2022/09/05 14:46:43;;;;;;;2.22;1.48;;;;;33.60;96771.00;;;;8357733;28;20296;-71
2022/09/05 14:51:16;;;;;;;3.72;1.63;;;;;33.50;96756.00;;;;8361436;28;20243;-72
2022/09/05 14:55:29;;;;;;;1.70;1.60;;;;;33.70;96761.00;;;;8331847;28;20607;-70
2022/09/05 14:59:37;;;;;;;1.73;1.67;;;;;33.70;96772.00;;;;8329208;28;20236;-71
2022/09/05 15:04:10;;;;;;;1.65;1.55;;;;;33.60;96763.00;;;;8328259;28;20294;-70
2022/09/05 15:09:20;;;;;;;2.67;1.50;;;;;33.40;96767.00;;;;8332631;28;20216;-69
2022/09/05 15:14:03;;;;;;;7.13;1.70;;;;;33.30;96759.00;;;;8360369;28;20216;-69
2022/09/05 15:18:34;;;;;;;1.83;1.73;;;;;33.20;96760.00;;;;8361435;28;20307;-68
2022/09/05 15:23:14;;;;;;;1.50;1.48;;;;;33.10;96750.00;;;;8351573;28;20232;-67
2022/09/05 15:27:18;;;;;;;2.33;1.60;;;;;33.00;96748.00;;;;8361190;28;20550;-67
2022/09/05 15:32:11;;;;;;;1.90;1.80;;;;;32.70;96742.00;;;;8360799;28;20243;-67
2022/09/05 15:36:33;;;;;;;1.83;1.73;;;;;32.60;96734.00;;;;8360420;28;20252;-67
2022/09/05 15:40:37;;;;;;;2.28;2.15;;;;;32.70;96731.00;;;;8360029;28;20226;-67
2022/09/05 15:44:40;;;;;;;1.88;1.77;;;;;32.60;96725.00;;;;8361520;28;20650;-67
2022/09/05 15:49:34;;;;;;;1.60;1.50;;;;;32.60;96728.00;;;;8361252;28;20224;-67
2022/09/05 15:53:38;;;;;;;3.00;1.80;;;;;32.60;96729.00;;;;8326707;28;20683;-67
2022/09/05 15:57:48;;;;;;;3.03;1.63;;;;;32.60;96720.00;;;;8360581;28;20228;-67
2022/09/05 16:01:52;;;;;;;3.42;1.67;;;;;32.90;96729.00;;;;8360567;28;20622;-67
2022/09/05 16:06:06;;;;;;;2.13;1.95;;;;;33.00;96723.00;;;;8360198;28;20220;-70
2022/09/05 16:10:39;;;;;;;1.73;1.63;;;;;33.00;96723.00;;;;8360438;28;20246;-67
2022/09/05 16:15:04;;;;;;;1.80;1.70;;;;;33.20;96724.00;;;;8357111;28;20274;-67
2022/09/05 16:19:41;;;;;;;1.70;1.60;;;;;33.50;96717.00;;;;8356314;28;20542;-68
2022/09/05 16:24:44;;;;;;;2.85;1.65;;;;;33.80;96713.00;;;;8369237;28;20227;-67
2022/09/05 16:29:20;;;;;;;1.80;1.70;;;;;33.70;96714.00;;;;8359486;28;20335;-67
2022/09/05 16:33:53;;;;;;;1.80;1.70;;;;;33.70;96709.00;;;;8365198;28;20212;-69
2022/09/05 16:38:06;;;;;;;2.20;2.00;;;;;33.80;96699.00;;;;8368559;28;20645;-68
2022/09/05 16:42:36;;;;;;;2.17;2.08;;;;;33.70;96703.00;;;;8432861;28;20594;-68
2022/09/05 16:47:09;;;;;;;2.28;1.73;;;;;33.20;96704.00;;;;8431088;28;20260;-68
2022/09/05 16:51:44;;;;;;;1.75;1.65;;;;;32.30;96699.00;;;;8431661;28;20221;-68
2022/09/05 16:55:54;;;;;;;8.30;2.10;;;;;31.40;96697.00;;;;8431716;28;20264;-68
2022/09/05 17:00:39;;;;;;;1.88;1.77;;;;;30.60;96696.00;;;;8431010;28;20233;-68
2022/09/05 17:04:51;;;;;;;1.85;1.50;;;;;30.00;96696.00;;;;8430875;28;20309;-67
2022/09/05 17:09:19;;;;;;;2.00;1.90;;;;;29.40;96692.00;;;;8431782;28;20222;-68
2022/09/05 17:13:45;;;;;;;1.50;1.50;;;;;28.80;96690.00;;;;8425579;28;20684;-67
2022/09/05 17:18:22;;;;;;;4.63;2.20;;;;;28.40;96688.00;;;;8429273;28;20242;-68
2022/09/05 17:23:01;;;;;;;2.17;1.90;;;;;27.80;96687.00;;;;8429205;28;20234;-68
2022/09/05 17:28:00;;;;;;;2.20;2.00;;;;;27.20;96692.00;;;;8426597;28;20614;-68
2022/09/05 17:32:47;;;;;;;4.07;1.85;;;;;26.40;96691.00;;;;8430235;28;20272;-68
2022/09/05 17:37:00;;;;;;;2.20;2.00;;;;;25.80;96687.00;;;;8429720;28;20219;-68
2022/09/05 17:41:34;;;;;;;2.20;1.95;;;;;25.30;96694.00;;;;8429825;28;20248;-68
2022/09/05 17:46:17;;;;;;;6.18;2.13;;;;;24.80;96701.00;;;;8429004;28;20294;-68
2022/09/05 17:50:49;;;;;;;2.58;2.38;;;;;24.30;96696.00;;;;8429204;28;20313;-69
2022/09/05 17:55:48;;;;;;;6.80;2.20;;;;;23.80;96694.00;;;;8429738;28;20219;-68
2022/09/05 18:00:41;;;;;;;3.78;2.50;;;;;23.30;96698.00;;;;8428271;28;20230;-67
2022/09/05 18:05:27;;;;;;;2.55;2.30;;;;;22.90;96699.00;;;;8411164;28;20302;-68
2022/09/05 18:10:01;;;;;;;3.35;2.45;;;;;22.60;96704.00;;;;8425185;28;20674;-69
2022/09/05 18:14:40;;;;;;;2.58;2.33;;;;;22.30;96702.00;;;;8428650;28;20242;-67
2022/09/05 18:19:55;;;;;;;3.38;2.78;;;;;22.00;96708.00;;;;8427723;28;20215;-67
2022/09/05 18:29:07;;;;;;;3.60;2.20;;;;;21.60;96708.00;;;;8397884;28;20537;-66
2022/09/05 18:33:18;;;;;;;5.25;2.65;;;;;21.60;96714.00;;;;8428859;28;20222;-66
2022/09/05 18:38:09;;;;;;;5.03;2.50;;;;;21.40;96710.00;;;;8425851;28;20235;-66
2022/09/05 18:42:28;;;;;;;2.40;2.20;;;;;21.40;96710.00;;;;8428350;28;20223;-67
2022/09/05 18:47:13;;;;;;;3.78;2.90;;;;;21.40;96709.00;;;;8427608;28;20242;-67
2022/09/05 18:52:16;;;;;;;2.60;2.40;;;;;21.30;96708.00;;;;8426433;28;20219;-69
2022/09/05 18:56:38;;;;;;;3.80;2.58;;;;;21.30;96713.00;;;;8418641;28;20258;-69
2022/09/05 19:01:27;;;;;;;2.72;2.53;;;;;21.30;96718.00;;;;8411104;28;20219;-70
2022/09/05 19:06:07;;;;;;;3.30;2.60;;;;;21.30;96707.00;;;;8423394;28;20219;-69
2022/09/05 19:11:10;;;;;;;3.88;2.88;;;;;21.00;96707.00;;;;8425805;28;20309;-68
2022/09/05 19:15:53;;;;;;;3.70;2.65;;;;;20.80;96718.00;;;;8423069;28;20219;-69
2022/09/05 19:20:30;;;;;;;2.88;2.67;;;;;20.70;96712.00;;;;8426379;28;20227;-68
2022/09/05 19:25:06;;;;;;;2.97;2.78;;;;;20.50;96716.00;;;;8420815;28;20242;-68
2022/09/05 19:29:43;;;;;;;3.22;2.97;;;;;20.30;96715.00;;;;8424677;28;20298;-70
2022/09/05 19:34:20;;;;;;;7.47;2.78;;;;;20.20;96711.00;;;;8402616;28;20583;-69
2022/09/05 19:38:55;;;;;;;2.90;2.50;;;;;20.20;96708.00;;;;8422565;28;20322;-67
2022/09/05 19:43:32;;;;;;;4.72;2.88;;;;;20.30;96710.00;;;;8390415;28;20289;-69
2022/09/05 19:48:21;;;;;;;4.97;2.40;;;;;20.40;96703.00;;;;8392709;28;20215;-68
2022/09/05 19:52:44;;;;;;;2.78;2.58;;;;;20.40;96693.00;;;;8377893;28;20667;-69
2022/09/05 19:57:23;;;;;;;3.42;2.80;;;;;20.30;96699.00;;;;8357730;28;20329;-69
2022/09/05 20:01:59;;;;;;;3.65;2.67;;;;;20.30;96702.00;;;;8399462;28;20235;-68
2022/09/05 20:06:33;;;;;;;5.07;3.03;;;;;20.20;96700.00;;;;8388707;28;20208;-71
2022/09/05 20:10:36;;;;;;;8.70;3.35;;;;;20.00;96700.00;;;;8398867;28;20651;-70
2022/09/05 20:14:41;;;;;;;3.88;3.25;;;;;19.90;96698.00;;;;8398695;28;20614;-70
2022/09/05 20:19:32;;;;;;;3.17;2.75;;;;;19.70;96701.00;;;;8394848;28;20640;-70
2022/09/05 20:23:57;;;;;;;4.68;3.50;;;;;19.60;96697.00;;;;8262850;28;20230;-70
2022/09/05 20:28:29;;;;;;;3.15;2.95;;;;;19.30;96696.00;;;;8260498;28;20650;-69
2022/09/05 20:37:31;;;;;;;2.92;2.72;;;;;19.00;96687.00;;;;8398348;28;20310;-70
2022/09/05 20:41:56;;;;;;;3.92;3.55;;;;;18.80;96685.00;;;;8376251;28;20224;-70
2022/09/05 20:46:34;;;;;;;5.53;3.53;;;;;18.50;96682.00;;;;8368758;28;20297;-69
2022/09/05 20:50:59;;;;;;;3.67;3.40;;;;;18.50;96691.00;;;;8362356;28;20220;-70
2022/09/05 20:55:27;;;;;;;5.45;3.55;;;;;18.50;96686.00;;;;8360864;28;20220;-70
2022/09/05 21:00:05;;;;;;;6.35;3.40;;;;;18.60;96691.00;;;;8359870;28;20692;-71
2022/09/05 21:04:08;;;;;;;5.95;3.58;;;;;18.70;96690.00;;;;8360641;28;20294;-70
2022/09/05 21:08:49;;;;;;;4.00;3.22;;;;;18.90;96688.00;;;;8360757;28;20283;-70
2022/09/05 21:13:27;;;;;;;3.28;3.05;;;;;19.00;96690.00;;;;8358881;28;20303;-70
2022/09/05 21:17:32;;;;;;;7.95;3.58;;;;;19.10;96690.00;;;;8360502;28;20221;-70
2022/09/05 21:22:07;;;;;;;4.22;3.00;;;;;19.20;96686.00;;;;8360194;28;20220;-70
2022/09/05 21:26:23;;;;;;;6.10;3.03;;;;;19.20;96697.00;;;;8360336;28;20213;-70
2022/09/05 21:30:27;;;;;;;3.28;2.75;;;;;19.30;96694.00;;;;8360951;28;20227;-71
2022/09/05 21:34:38;;;;;;;3.20;3.00;;;;;19.30;96707.00;;;;8361574;28;20304;-71
2022/09/05 21:39:08;;;;;;;3.65;2.75;;;;;19.40;96705.00;;;;8359465;28;20610;-71
2022/09/05 21:43:13;;;;;;;5.30;3.00;;;;;19.30;96712.00;;;;8389033;28;20578;-71
2022/09/05 21:47:49;;;;;;;3.92;3.17;;;;;19.30;96706.00;;;;8375703;28;20223;-72
2022/09/05 21:51:57;;;;;;;5.78;3.17;;;;;19.30;96707.00;;;;8407331;28;20720;-71
2022/09/05 21:56:32;;;;;;;4.38;2.95;;;;;19.30;96706.00;;;;8402090;28;20540;-71
2022/09/05 22:01:10;;;;;;;3.83;3.45;;;;;19.20;96701.00;;;;8416401;27;20238;-71
2022/09/05 22:05:13;;;;;;;6.68;3.95;;;;;19.20;96705.00;;;;8422210;27;20219;-71
2022/09/05 22:09:51;;;;;;;4.07;3.38;;;;;19.10;96706.00;;;;8416087;28;20310;-71
2022/09/05 22:13:57;;;;;;;6.30;4.15;;;;;19.20;96719.00;;;;8422924;28;20307;-71
2022/09/05 22:18:39;;;;;;;6.97;3.80;;;;;19.20;96718.00;;;;8443935;27;20309;-71
2022/09/05 22:22:43;;;;;;;5.43;4.03;;;;;19.10;96706.00;;;;8423968;28;20314;-71
2022/09/05 22:27:04;;;;;;;5.13;3.60;;;;;19.10;96710.00;;;;8421585;28;20238;-71
2022/09/05 22:31:14;;;;;;;6.85;4.03;;;;;19.00;96701.00;;;;8429275;28;20530;-71
2022/09/05 22:35:18;;;;;;;4.68;3.88;;;;;18.90;96692.00;;;;8428606;28;20660;-71
2022/09/05 22:39:30;;;;;;;6.07;4.10;;;;;18.90;96692.00;;;;8428623;28;20246;-71
2022/09/05 22:43:46;;;;;;;4.93;4.43;;;;;18.80;96689.00;;;;8428489;28;20207;-71
2022/09/05 22:48:16;;;;;;;6.07;4.55;;;;;18.70;96682.00;;;;8428711;28;20216;-71
2022/09/05 22:52:20;;;;;;;7.55;4.35;;;;;18.70;96677.00;;;;8419743;28;20239;-71
2022/09/05 22:56:35;;;;;;;5.65;4.57;;;;;18.70;96670.00;;;;8424761;28;20318;-72
2022/09/05 23:00:42;;;;;;;7.13;4.95;;;;;18.70;96672.00;;;;8424024;28;20675;-71
2022/09/05 23:04:46;;;;;;;5.50;5.00;;;;;18.70;96661.00;;;;8424514;28;20934;-71
2022/09/05 23:08:49;;;;;;;5.30;4.80;;;;;18.60;96673.00;;;;8425500;28;20772;-71
2022/09/05 23:12:52;;;;;;;5.75;5.15;;;;;18.60;96672.00;;;;8424871;28;20304;-71
2022/09/05 23:16:57;;;;;;;7.32;5.32;;;;;18.60;96667.00;;;;8424352;28;20660;-72
2022/09/05 23:21:02;;;;;;;9.60;5.45;;;;;18.60;96669.00;;;;8424011;28;20310;-72
2022/09/05 23:25:06;;;;;;;9.02;6.20;;;;;18.60;96675.00;;;;8423300;28;20294;-72